Time;durP1;ratioP1;P1;durP2;ratioP2;P2;SDS_P1;SDS_P2;PMS_P1;PMS_P2;Temp;Humidity;BMP_temperature;BMP_pressure;BME280_temperature;BME280_humidity;BME280_pressure;Samples;Min_cycle;Max_cycle;Signal;HPM_P1;HPM_P2
2020/12/19 00:02:00;;;;;;;38.85;17.20;;;;;;;-0.40;80.92;101178.88;1803500;78;21131;-77
2020/12/19 00:04:31;;;;;;;33.63;16.00;;;;;;;-0.43;80.97;101174.65;1787719;78;21109;-81
2020/12/19 00:06:59;;;;;;;32.65;15.32;;;;;;;-0.42;81.09;101179.53;1793285;78;21148;-73
2020/12/19 00:09:28;;;;;;;28.40;15.10;;;;;;;-0.40;81.10;101172.15;1794510;78;21129;-75
2020/12/19 00:11:56;;;;;;;30.17;15.60;;;;;;;-0.38;80.94;101178.24;1792232;78;21096;-72
2020/12/19 00:14:24;;;;;;;28.77;15.57;;;;;;;-0.38;80.77;101183.63;1789482;80;21557;-75
2020/12/19 00:16:53;;;;;;;27.55;15.53;;;;;;;-0.39;80.66;101184.61;1791130;78;21085;-76
2020/12/19 00:19:21;;;;;;;26.07;14.23;;;;;;;-0.40;80.69;101178.88;1804558;79;21110;-74
2020/12/19 00:21:49;;;;;;;28.92;15.32;;;;;;;-0.42;80.68;101171.47;1792476;78;21127;-73
2020/12/19 00:24:17;;;;;;;26.35;15.20;;;;;;;-0.41;80.72;101173.17;1790915;80;21146;-74
2020/12/19 00:26:45;;;;;;;27.42;15.45;;;;;;;-0.41;80.79;101176.70;1800781;78;21200;-73
2020/12/19 00:29:13;;;;;;;26.77;14.98;;;;;;;-0.41;80.81;101167.30;1791210;80;21147;-71
2020/12/19 00:31:41;;;;;;;26.60;14.90;;;;;;;-0.39;80.76;101164.44;1790800;78;21115;-73
2020/12/19 00:34:10;;;;;;;27.37;14.93;;;;;;;-0.40;80.67;101164.93;1790868;78;21124;-72
2020/12/19 00:36:38;;;;;;;29.50;16.93;;;;;;;-0.41;80.84;101157.03;1788609;80;21206;-72
2020/12/19 00:39:06;;;;;;;33.80;18.50;;;;;;;-0.41;81.00;101153.00;1742500;80;21496;-73
2020/12/19 00:41:34;;;;;;;31.20;16.30;;;;;;;-0.43;81.13;101157.17;1741152;80;21137;-74
2020/12/19 00:44:02;;;;;;;33.53;17.70;;;;;;;-0.43;81.32;101154.48;1738616;80;21155;-75
2020/12/19 00:46:30;;;;;;;32.30;17.73;;;;;;;-0.43;81.47;101153.66;1766525;80;21137;-75
2020/12/19 00:48:58;;;;;;;37.78;18.65;;;;;;;-0.43;81.78;101140.22;1756719;80;21113;-74
2020/12/19 00:51:26;;;;;;;30.92;16.75;;;;;;;-0.42;81.89;101143.23;1755922;81;21188;-75
2020/12/19 00:53:55;;;;;;;32.15;17.07;;;;;;;-0.41;81.92;101136.86;1773361;80;21158;-73
2020/12/19 00:56:26;;;;;;;32.37;17.17;;;;;;;-0.42;82.00;101137.85;1730835;80;21116;-74
2020/12/19 00:58:55;;;;;;;33.50;18.27;;;;;;;-0.44;82.04;101132.64;1788406;79;21162;-80
2020/12/19 01:01:25;;;;;;;33.63;18.20;;;;;;;-0.45;82.16;101130.94;1770209;79;21141;-77
2020/12/19 01:03:55;;;;;;;33.30;18.47;;;;;;;-0.44;82.21;101130.45;1787312;79;21185;-76
2020/12/19 01:06:24;;;;;;;33.90;19.50;;;;;;;-0.47;82.33;101131.60;1766586;79;21113;-75
2020/12/19 01:08:56;;;;;;;34.17;18.33;;;;;;;-0.45;82.42;101128.75;1733430;81;21588;-80
2020/12/19 01:11:27;;;;;;;30.27;17.33;;;;;;;-0.47;82.45;101125.37;1742055;81;21131;-79
2020/12/19 01:13:56;;;;;;;28.97;16.20;;;;;;;-0.47;82.35;101125.37;1743125;81;21694;-78
2020/12/19 01:16:26;;;;;;;24.30;14.13;;;;;;;-0.46;82.32;101127.08;1732322;81;21688;-79
2020/12/19 01:18:56;;;;;;;26.57;14.77;;;;;;;-0.46;82.27;101123.05;1731983;83;21119;-79
2020/12/19 01:21:27;;;;;;;29.30;15.17;;;;;;;-0.46;82.30;101119.01;1700768;83;21648;-80
2020/12/19 01:23:55;;;;;;;27.10;14.43;;;;;;;-0.47;82.34;101115.96;1732070;81;21613;-80
2020/12/19 01:26:24;;;;;;;25.77;14.97;;;;;;;-0.47;82.49;101118.66;1740723;81;21135;-80
2020/12/19 01:28:52;;;;;;;25.23;14.40;;;;;;;-0.46;82.49;101110.94;1751425;81;21621;-77
2020/12/19 01:31:21;;;;;;;27.67;16.37;;;;;;;-0.46;82.39;101113.62;1731383;81;21165;-79
2020/12/19 01:33:49;;;;;;;27.53;16.13;;;;;;;-0.46;82.41;101112.28;1741809;81;21231;-80
2020/12/19 01:36:20;;;;;;;28.67;15.68;;;;;;;-0.47;82.53;101109.23;1751983;81;21302;-80
2020/12/19 01:38:50;;;;;;;28.83;15.83;;;;;;;-0.45;82.69;101105.89;1740933;81;21603;-83
2020/12/19 01:41:21;;;;;;;31.97;15.33;;;;;;;-0.45;82.71;101100.51;1733708;81;21558;-81
2020/12/19 01:43:57;;;;;;;26.60;14.73;;;;;;;-0.44;82.77;101097.68;1738203;81;22161;-83
2020/12/19 01:46:54;;;;;;;27.33;14.93;;;;;;;-0.44;82.67;101093.65;1736042;81;21167;-82
2020/12/19 01:49:25;;;;;;;26.45;14.03;;;;;;;-0.46;82.58;101089.43;1732319;83;21263;-80
2020/12/19 01:51:58;;;;;;;27.07;15.13;;;;;;;-0.47;82.59;101087.73;1743775;81;21137;-87
2020/12/19 01:54:26;;;;;;;24.73;13.83;;;;;;;-0.48;82.72;101084.72;1755294;80;21156;-80
2020/12/19 01:56:55;;;;;;;28.25;14.10;;;;;;;-0.49;82.66;101084.36;1761539;80;21924;-77
2020/12/19 01:59:25;;;;;;;24.57;13.80;;;;;;;-0.49;82.66;101082.52;1772973;80;21096;-78
2020/12/19 02:02:07;;;;;;;24.37;14.43;;;;;;;-0.47;82.64;101085.04;1748709;81;21154;-78
2020/12/19 02:04:35;;;;;;;25.13;14.33;;;;;;;-0.48;82.61;101088.22;1757039;80;21147;-80
2020/12/19 02:07:05;;;;;;;27.85;14.73;;;;;;;-0.46;82.56;101084.05;1730282;81;21648;-78
2020/12/19 02:09:39;;;;;;;27.03;14.97;;;;;;;-0.47;82.54;101085.89;1744257;81;21124;-80
2020/12/19 02:12:09;;;;;;;27.90;16.40;;;;;;;-0.46;82.53;101091.63;1729099;81;21233;-79
2020/12/19 02:14:37;;;;;;;32.27;16.90;;;;;;;-0.46;82.65;101085.39;1748175;81;21173;-79
2020/12/19 02:17:10;;;;;;;31.90;16.83;;;;;;;-0.45;82.58;101087.06;1729225;82;21167;-78
2020/12/19 02:19:40;;;;;;;34.10;18.43;;;;;;;-0.47;82.53;101082.34;1732017;81;21090;-80
2020/12/19 02:22:08;;;;;;;34.77;18.97;;;;;;;-0.51;82.73;101095.28;1761035;80;21155;-81
2020/12/19 02:24:36;;;;;;;35.57;19.30;;;;;;;-0.52;82.72;101096.77;1751104;80;21093;-81
2020/12/19 02:27:04;;;;;;;34.25;18.25;;;;;;;-0.55;82.73;101091.20;1748814;80;21136;-81
2020/12/19 02:29:32;;;;;;;30.05;17.30;;;;;;;-0.55;82.73;101091.20;1750548;80;21163;-81
2020/12/19 02:32:01;;;;;;;33.97;18.60;;;;;;;-0.56;83.21;101090.03;1758023;80;21225;-82
2020/12/19 02:34:29;;;;;;;36.42;19.37;;;;;;;-0.57;83.23;101091.86;1753532;80;21146;-79
2020/12/19 02:36:58;;;;;;;35.10;19.87;;;;;;;-0.57;83.30;101091.02;1773798;80;21157;-84
2020/12/19 02:39:28;;;;;;;40.17;21.10;;;;;;;-0.58;83.39;101094.20;1751734;80;21159;-84
2020/12/19 02:41:56;;;;;;;37.77;21.03;;;;;;;-0.57;83.50;101088.33;1752427;80;21251;-77
2020/12/19 02:44:24;;;;;;;47.15;23.75;;;;;;;-0.58;83.55;101089.34;1753508;80;21349;-81
2020/12/19 02:46:54;;;;;;;52.27;28.23;;;;;;;-0.59;83.54;101085.81;1782076;80;21137;-81
2020/12/19 02:49:22;;;;;;;53.55;28.92;;;;;;;-0.61;83.52;101083.78;1780899;80;21170;-80
2020/12/19 02:51:51;;;;;;;55.97;29.67;;;;;;;-0.63;83.64;101083.06;1751261;82;21599;-80
2020/12/19 02:54:19;;;;;;;56.60;27.87;;;;;;;-0.65;83.68;101080.55;1751147;80;21266;-81
2020/12/19 02:56:47;;;;;;;56.77;29.27;;;;;;;-0.62;83.65;101081.23;1730212;81;21132;-83
2020/12/19 02:59:14;;;;;;;59.50;31.20;;;;;;;-0.61;83.68;101082.44;1752230;82;21617;-82
2020/12/19 03:01:42;;;;;;;55.40;30.40;;;;;;;-0.61;83.67;101081.59;1751049;80;21107;-80
2020/12/19 03:04:10;;;;;;;64.62;33.08;;;;;;;-0.60;83.78;101076.53;1726776;82;21244;-82
2020/12/19 03:06:38;;;;;;;63.08;31.60;;;;;;;-0.60;83.86;101076.04;1757740;81;21617;-80
2020/12/19 03:09:06;;;;;;;62.88;32.10;;;;;;;-0.59;83.88;101068.33;1746185;81;21557;-81
2020/12/19 03:11:33;;;;;;;57.55;30.85;;;;;;;-0.59;83.92;101064.80;1731913;81;21224;-80
2020/12/19 03:14:01;;;;;;;52.73;28.87;;;;;;;-0.58;84.04;101067.84;1732370;83;21125;-83
2020/12/19 03:16:29;;;;;;;55.50;30.52;;;;;;;-0.57;84.03;101069.50;1732188;81;21160;-81
2020/12/19 03:18:57;;;;;;;56.20;29.90;;;;;;;-0.56;84.11;101068.52;1749891;78;21173;-80
2020/12/19 03:21:25;;;;;;;51.33;27.93;;;;;;;-0.54;84.14;101069.20;1751957;81;21645;-82
2020/12/19 03:23:53;;;;;;;51.48;29.12;;;;;;;-0.54;84.16;101062.48;1755727;80;21582;-80
2020/12/19 03:26:23;;;;;;;51.07;25.33;;;;;;;-0.56;84.26;101066.68;1754046;81;21577;-81
2020/12/19 03:28:51;;;;;;;45.45;25.43;;;;;;;-0.55;84.39;101060.28;1750890;80;21123;-82
2020/12/19 03:31:19;;;;;;;42.88;23.62;;;;;;;-0.53;84.41;101063.66;1728985;82;21120;-80
2020/12/19 03:33:47;;;;;;;44.85;24.20;;;;;;;-0.49;84.49;101068.22;1734833;80;21186;-82
2020/12/19 03:36:15;;;;;;;45.98;24.72;;;;;;;-0.46;84.44;101066.57;1761554;81;21140;-81
2020/12/19 03:38:43;;;;;;;42.17;24.30;;;;;;;-0.43;84.54;101064.39;1776773;80;21153;-80
2020/12/19 03:41:11;;;;;;;41.50;24.30;;;;;;;-0.39;84.50;101060.90;1757451;82;21139;-83
2020/12/19 03:43:38;;;;;;;42.70;23.95;;;;;;;-0.39;84.42;101061.75;1749141;80;21626;-82
2020/12/19 03:46:06;;;;;;;42.08;24.30;;;;;;;-0.39;84.49;101060.90;1764717;81;21174;-81
2020/12/19 03:48:34;;;;;;;41.48;23.70;;;;;;;-0.39;84.60;101062.24;1757810;80;21228;-82
2020/12/19 03:51:02;;;;;;;43.60;24.87;;;;;;;-0.40;84.66;101056.51;1737493;81;21139;-79
2020/12/19 03:53:30;;;;;;;46.37;25.27;;;;;;;-0.38;84.82;101055.88;1737550;81;21200;-80
2020/12/19 03:55:58;;;;;;;48.98;25.65;;;;;;;-0.38;84.90;101053.19;1753096;81;21175;-81
2020/12/19 03:58:26;;;;;;;41.88;24.25;;;;;;;-0.39;84.92;101052.34;1764585;81;21136;-80
2020/12/19 04:00:54;;;;;;;40.83;23.12;;;;;;;-0.39;85.03;101054.17;1745839;81;21125;-82
2020/12/19 04:03:22;;;;;;;39.85;22.42;;;;;;;-0.41;85.04;101060.22;1732987;83;21160;-82
2020/12/19 04:05:50;;;;;;;41.02;24.18;;;;;;;-0.40;85.27;101055.16;1750140;80;21120;-80
2020/12/19 04:08:17;;;;;;;44.05;24.72;;;;;;;-0.38;85.33;101058.03;1752922;81;21168;-80
2020/12/19 04:10:46;;;;;;;42.43;26.07;;;;;;;-0.37;85.38;101060.23;1755912;80;21174;-79
2020/12/19 04:13:14;;;;;;;42.40;24.75;;;;;;;-0.38;85.31;101065.29;1751431;82;21105;-80
2020/12/19 04:15:41;;;;;;;48.08;25.30;;;;;;;-0.39;85.47;101064.93;1750397;80;21132;-76
2020/12/19 04:18:10;;;;;;;44.70;24.87;;;;;;;-0.40;85.42;101065.42;1750935;82;21603;-80
2020/12/19 04:20:38;;;;;;;43.83;24.85;;;;;;;-0.40;85.52;101060.55;1762853;80;21628;-75
2020/12/19 04:23:05;;;;;;;43.00;23.18;;;;;;;-0.39;85.58;101067.63;1781559;80;21220;-81
2020/12/19 04:25:33;;;;;;;39.25;23.12;;;;;;;-0.38;85.63;101070.14;1774407;80;21132;-80
2020/12/19 04:28:01;;;;;;;39.73;21.35;;;;;;;-0.37;85.60;101065.11;1765978;80;21133;-82
2020/12/19 04:30:31;;;;;;;37.90;21.30;;;;;;;-0.39;85.62;101068.97;1767685;80;21585;-82
2020/12/19 04:33:00;;;;;;;35.15;20.10;;;;;;;-0.41;85.68;101068.29;1755915;80;21545;-83
2020/12/19 04:35:27;;;;;;;35.03;18.87;;;;;;;-0.43;85.76;101069.77;1769068;80;21125;-80
2020/12/19 04:37:55;;;;;;;31.05;17.95;;;;;;;-0.42;85.85;101061.20;1747998;81;21584;-81
2020/12/19 04:40:23;;;;;;;31.12;18.20;;;;;;;-0.41;85.83;101062.41;1754655;81;21120;-81
2020/12/19 04:42:51;;;;;;;35.85;19.23;;;;;;;-0.41;85.91;101062.91;1763965;81;21128;-80
2020/12/19 04:45:19;;;;;;;35.90;19.15;;;;;;;-0.37;85.93;101062.42;1753283;81;21095;-83
2020/12/19 04:47:47;;;;;;;33.65;18.95;;;;;;;-0.38;85.72;101057.22;1734040;80;21243;-83
2020/12/19 04:50:15;;;;;;;31.05;18.00;;;;;;;-0.40;85.67;101056.51;1753244;80;21240;-84
2020/12/19 04:52:43;;;;;;;29.18;15.98;;;;;;;-0.40;85.79;101063.23;1716862;81;21141;-82
2020/12/19 04:57:50;;;;;;;30.33;16.50;;;;;;;-0.40;85.77;101064.08;1829273;77;22123;-80
2020/12/19 05:00:18;;;;;;;28.65;16.07;;;;;;;-0.44;85.91;101061.88;1778121;80;21541;-80
2020/12/19 05:02:46;;;;;;;32.38;18.00;;;;;;;-0.43;85.68;101062.23;1772746;80;21121;-78
2020/12/19 05:05:16;;;;;;;32.87;18.27;;;;;;;-0.48;85.53;101078.81;1770135;80;21364;-81
2020/12/19 05:07:45;;;;;;;32.55;17.15;;;;;;;-0.53;85.77;101075.75;1715477;81;21142;-82
2020/12/19 05:10:12;;;;;;;29.97;17.30;;;;;;;-0.52;85.95;101070.73;1678742;82;21313;-82
2020/12/19 05:12:42;;;;;;;30.80;16.97;;;;;;;-0.52;85.92;101072.08;1720746;82;21236;-84
2020/12/19 05:15:10;;;;;;;31.60;18.10;;;;;;;-0.51;85.89;101079.64;1666146;83;21602;-82
2020/12/19 05:17:38;;;;;;;33.98;17.48;;;;;;;-0.48;85.91;101075.30;1721642;82;21152;-79
2020/12/19 05:20:06;;;;;;;34.70;16.77;;;;;;;-0.51;85.65;101074.27;1728454;82;21199;-83
2020/12/19 05:22:34;;;;;;;31.87;16.75;;;;;;;-0.51;85.73;101069.73;1721837;82;21144;-83
2020/12/19 05:25:04;;;;;;;33.30;16.77;;;;;;;-0.48;85.74;101068.58;1694476;82;21145;-84
2020/12/19 05:27:32;;;;;;;32.28;16.27;;;;;;;-0.49;85.48;101073.11;1729332;82;21176;-80
2020/12/19 05:30:01;;;;;;;30.32;16.20;;;;;;;-0.53;85.50;101079.78;1720356;82;21223;-79
2020/12/19 05:32:29;;;;;;;32.55;17.10;;;;;;;-0.50;85.65;101079.48;1681822;83;21146;-78
2020/12/19 05:34:57;;;;;;;30.00;16.07;;;;;;;-0.47;85.68;101082.34;1713472;83;21214;-81
2020/12/19 05:37:25;;;;;;;29.42;14.78;;;;;;;-0.45;85.53;101084.37;1719968;82;21220;-82
2020/12/19 05:39:52;;;;;;;25.60;13.85;;;;;;;-0.47;85.13;101090.42;1709999;81;21164;-83
2020/12/19 05:42:23;;;;;;;24.67;14.18;;;;;;;-0.49;84.89;101089.73;1715793;82;21248;-79
2020/12/19 05:44:51;;;;;;;24.93;14.63;;;;;;;-0.48;84.80;101090.09;1710817;82;21169;-84
2020/12/19 05:47:19;;;;;;;29.05;15.85;;;;;;;-0.47;84.67;101097.98;1709921;83;21128;-78
2020/12/19 05:49:48;;;;;;;28.67;15.67;;;;;;;-0.46;84.60;101100.19;1719405;82;21141;-80
2020/12/19 05:52:17;;;;;;;28.98;15.70;;;;;;;-0.48;84.37;101098.98;1714198;83;21141;-81
2020/12/19 05:54:46;;;;;;;30.53;14.63;;;;;;;-0.46;84.67;101100.19;1671736;82;21754;-79
2020/12/19 05:57:14;;;;;;;27.00;14.90;;;;;;;-0.45;84.44;101105.89;1726426;82;21172;-81
2020/12/19 05:59:42;;;;;;;29.70;16.10;;;;;;;-0.45;84.51;101099.16;1745860;81;21654;-83
2020/12/19 06:02:10;;;;;;;28.32;15.10;;;;;;;-0.44;84.56;101108.94;1694221;85;21160;-81
2020/12/19 06:04:38;;;;;;;28.73;14.85;;;;;;;-0.44;84.65;101101.72;1694136;84;21156;-83
2020/12/19 06:07:06;;;;;;;28.90;14.60;;;;;;;-0.44;84.08;101111.63;1688892;83;21168;-84
2020/12/19 06:09:34;;;;;;;28.80;14.73;;;;;;;-0.44;84.08;101111.63;1679943;83;21171;-81
2020/12/19 06:12:10;;;;;;;24.45;13.53;;;;;;;-0.41;84.02;101116.70;1711349;82;21572;-78
2020/12/19 06:14:40;;;;;;;31.27;14.27;;;;;;;-0.39;84.04;101117.38;1713624;83;21180;-82
2020/12/19 06:17:21;;;;;;;29.70;15.03;;;;;;;-0.39;83.86;101118.23;1684527;83;21294;-79
2020/12/19 06:19:50;;;;;;;29.53;14.90;;;;;;;-0.40;83.83;101117.02;1727867;83;21608;-81
2020/12/19 06:22:18;;;;;;;;;;;;;;;-0.40;83.71;101123.74;1711977;83;21264;-80
2020/12/19 06:24:48;;;;;;;30.40;14.33;;;;;;;-0.39;83.77;101119.57;1717413;83;20203;-82
2020/12/19 06:27:29;;;;;;;31.37;14.00;;;;;;;-0.41;83.56;101120.23;1711833;81;21149;-80
2020/12/19 06:29:57;;;;;;;27.73;14.07;;;;;;;-0.43;83.65;101116.83;1703012;83;21677;-82
2020/12/19 06:32:29;;;;;;;30.80;15.98;;;;;;;-0.40;83.77;101118.36;1716567;83;21622;-80
2020/12/19 06:35:01;;;;;;;27.37;14.13;;;;;;;-0.37;83.71;101125.63;1700317;84;21177;-83
2020/12/19 06:37:32;;;;;;;32.17;15.20;;;;;;;-0.36;83.50;101123.79;1709450;83;21161;-79
2020/12/19 06:40:16;;;;;;;29.17;15.00;;;;;;;-0.39;83.43;101128.98;1726729;83;21674;-80
2020/12/19 06:42:47;;;;;;;29.10;14.97;;;;;;;-0.44;82.45;101121.03;1694486;83;21091;-81
2020/12/19 06:45:27;;;;;;;29.87;15.53;;;;;;;-0.48;82.98;101125.87;1690442;83;21145;-81
2020/12/19 06:47:56;;;;;;;28.50;15.83;;;;;;;-0.55;83.04;101132.03;1702372;83;21147;-81
2020/12/19 06:51:00;;;;;;;32.07;15.97;;;;;;;-0.55;83.48;101126.16;1708057;82;21186;-82
2020/12/19 06:53:30;;;;;;;28.43;14.57;;;;;;;-0.52;83.58;101133.06;1702307;83;21150;-80
2020/12/19 06:55:58;;;;;;;28.63;15.13;;;;;;;-0.51;83.08;101127.55;1720903;83;21587;-81
2020/12/19 06:58:35;;;;;;;;;;;;;;;-0.52;82.85;101131.72;1722671;81;21139;-80
2020/12/19 07:01:28;;;;;;;33.55;15.95;;;;;;;-0.60;82.75;101130.30;1725689;82;20176;-80
2020/12/19 07:03:56;;;;;;;33.87;16.87;;;;;;;-0.63;83.36;101126.61;1739786;81;21259;-80
2020/12/19 07:06:24;;;;;;;33.18;17.30;;;;;;;-0.59;83.44;101124.79;1723806;83;21157;-80
2020/12/19 07:08:52;;;;;;;38.00;18.10;;;;;;;-0.60;83.31;101126.27;1726392;81;21136;-79
2020/12/19 07:11:38;;;;;;;47.73;23.37;;;;;;;-0.56;83.57;101130.36;1702431;83;21137;-78
2020/12/19 07:14:14;;;;;;;36.03;18.80;;;;;;;-0.52;83.49;101128.54;1731531;81;21170;-80
2020/12/19 07:16:48;;;;;;;33.03;17.07;;;;;;;-0.52;83.03;101129.03;1721213;82;21344;-82
2020/12/19 07:19:24;;;;;;;40.87;17.27;;;;;;;-0.55;82.94;101126.16;1720534;81;21184;-80
2020/12/19 07:21:54;;;;;;;37.13;17.00;;;;;;;-0.56;83.00;101116.91;1743942;82;21240;-82
2020/12/19 07:24:23;;;;;;;42.23;17.97;;;;;;;-0.57;83.18;101118.75;1744061;81;21141;-81
2020/12/19 07:26:52;;;;;;;34.70;17.00;;;;;;;-0.51;83.46;101121.32;1743200;82;21192;-85
2020/12/19 07:29:24;;;;;;;33.60;15.93;;;;;;;-0.48;83.41;101125.05;1699722;83;21156;-80
2020/12/19 07:31:57;;;;;;;37.43;17.33;;;;;;;-0.53;82.79;101130.05;1680396;82;21157;-84
2020/12/19 07:34:25;;;;;;;38.87;19.67;;;;;;;-0.53;83.18;101131.40;1695311;85;21243;-81
2020/12/19 07:36:54;;;;;;;40.70;20.40;;;;;;;-0.55;83.16;101128.84;1716358;81;21186;-81
2020/12/19 07:39:22;;;;;;;39.95;21.20;;;;;;;-0.53;82.93;101130.05;1714632;83;21651;-79
2020/12/19 07:42:09;;;;;;;;;;;;;;;-0.52;83.28;101134.41;1725618;82;21262;-80
2020/12/19 07:44:37;;;;;;;47.90;20.47;;;;;;;-0.48;83.28;101135.28;1722359;83;20302;-81
2020/12/19 07:47:07;;;;;;;37.45;19.45;;;;;;;-0.44;83.28;101138.52;1735686;82;21126;-79
2020/12/19 07:49:46;;;;;;;44.50;20.80;;;;;;;-0.40;83.39;101139.88;1724509;83;21136;-81
2020/12/19 07:52:23;;;;;;;42.33;21.03;;;;;;;-0.34;83.13;101140.61;1704696;83;21108;-82
2020/12/19 07:55:03;;;;;;;44.90;20.83;;;;;;;-0.31;83.07;101137.61;1718325;82;21548;-82
2020/12/19 07:57:32;;;;;;;37.13;19.10;;;;;;;-0.28;82.69;101140.81;1706324;82;21132;-83
2020/12/19 08:00:03;;;;;;;38.73;18.13;;;;;;;-0.27;82.69;101137.63;1727045;82;21156;-79
2020/12/19 08:02:35;;;;;;;42.07;19.37;;;;;;;-0.27;82.34;101134.94;1725630;82;21807;-81
2020/12/19 08:05:03;;;;;;;38.63;19.90;;;;;;;-0.33;82.14;101135.59;1695127;85;21663;-82
2020/12/19 08:07:31;;;;;;;39.67;20.08;;;;;;;-0.36;82.12;101138.09;1703777;82;21140;-83
2020/12/19 08:10:02;;;;;;;41.48;20.60;;;;;;;-0.45;82.38;101131.44;1723912;82;21616;-82
2020/12/19 08:12:30;;;;;;;43.77;20.83;;;;;;;-0.44;82.81;101131.30;1736442;81;21170;-84
2020/12/19 08:15:07;;;;;;;39.18;18.65;;;;;;;-0.39;83.02;101126.30;1695447;85;21141;-82
2020/12/19 08:17:40;;;;;;;38.20;17.43;;;;;;;-0.32;82.87;101127.84;1690940;83;21136;-83
2020/12/19 08:20:10;;;;;;;42.00;19.17;;;;;;;-0.28;82.65;101125.20;1699909;83;21111;-84
2020/12/19 08:22:38;;;;;;;42.88;18.95;;;;;;;-0.24;82.29;101127.41;1698456;81;21174;-81
2020/12/19 08:25:05;;;;;;;41.48;19.55;;;;;;;-0.19;82.15;101124.23;1758486;81;21156;-81
2020/12/19 08:27:51;;;;;;;43.25;18.82;;;;;;;-0.17;82.23;101122.23;1726353;83;21646;-81
2020/12/19 08:30:29;;;;;;;37.87;18.17;;;;;;;-0.14;82.40;101119.23;1695779;83;21546;-80
2020/12/19 08:33:06;;;;;;;41.67;19.13;;;;;;;-0.14;81.66;101123.27;1727862;82;21227;-81
2020/12/19 08:35:39;;;;;;;46.77;22.30;;;;;;;-0.19;81.80;101119.71;1701650;83;21155;-83
2020/12/19 08:38:19;;;;;;;43.47;21.00;;;;;;;-0.17;81.88;101117.70;1709876;83;21219;-83
2020/12/19 08:40:48;;;;;;;45.23;21.12;;;;;;;-0.14;81.95;101115.19;1712725;82;21120;-81
2020/12/19 08:43:18;;;;;;;40.43;20.10;;;;;;;-0.12;81.95;101107.80;1709254;83;21596;-79
2020/12/19 08:45:49;;;;;;;40.03;20.43;;;;;;;-0.10;81.92;101110.67;1697619;83;21593;-84
2020/12/19 08:48:21;;;;;;;40.63;20.87;;;;;;;-0.08;81.74;101107.84;1725939;83;21176;-80
2020/12/19 08:50:51;;;;;;;42.07;20.50;;;;;;;-0.09;81.83;101102.95;1729900;82;21137;-80
2020/12/19 08:53:26;;;;;;;45.53;21.90;;;;;;;-0.08;81.99;101107.84;1726839;83;21736;-80
2020/12/19 08:55:55;;;;;;;52.97;25.60;;;;;;;-0.08;81.88;101097.89;1729766;82;21181;-87
2020/12/19 08:58:31;;;;;;;40.93;20.93;;;;;;;-0.06;81.87;101099.10;1756166;82;21206;-85
2020/12/19 09:01:02;;;;;;;39.80;19.37;;;;;;;-0.04;82.00;101098.44;1724391;82;21115;-82
2020/12/19 09:03:32;;;;;;;44.57;20.83;;;;;;;-0.03;81.96;101100.13;1726860;83;21149;-84
2020/12/19 09:06:13;;;;;;;43.10;21.87;;;;;;;-0.01;81.87;101088.70;1739512;81;21293;-82
2020/12/19 09:08:46;;;;;;;43.33;21.33;;;;;;;-0.02;81.63;101096.42;1721004;83;21148;-82
2020/12/19 09:11:28;;;;;;;43.40;21.40;;;;;;;-0.02;81.70;101085.66;1715107;82;21551;-83
2020/12/19 09:14:10;;;;;;;44.63;20.73;;;;;;;-0.03;81.81;101086.68;1726083;83;21124;-86
2020/12/19 09:16:51;;;;;;;49.37;23.40;;;;;;;-0.03;81.84;101083.98;1731544;82;21142;-81
2020/12/19 09:19:19;;;;;;;47.53;23.43;;;;;;;0.00;81.95;101087.71;1742352;82;21620;-84
2020/12/19 09:21:59;;;;;;;51.10;24.57;;;;;;;0.04;81.78;101087.72;1726543;81;21125;-80
2020/12/19 09:24:27;;;;;;;50.83;23.63;;;;;;;0.05;81.82;101084.03;1695176;85;21189;-77
2020/12/19 09:26:56;;;;;;;48.97;22.80;;;;;;;0.04;81.67;101086.38;1725089;81;21136;-76
2020/12/19 09:29:24;;;;;;;52.45;23.38;;;;;;;0.02;81.53;101087.05;1726187;82;21149;-79
2020/12/19 09:31:52;;;;;;;49.03;22.40;;;;;;;0.02;81.60;101083.01;1725241;81;21131;-80
2020/12/19 09:34:19;;;;;;;49.60;23.73;;;;;;;0.02;81.62;101082.16;1725617;83;21267;-84
2020/12/19 09:36:49;;;;;;;56.37;23.70;;;;;;;0.06;81.66;101080.81;1696109;82;21620;-78
2020/12/19 09:39:17;;;;;;;51.63;24.07;;;;;;;0.06;81.52;101078.98;1756061;82;21515;-80
2020/12/19 09:41:45;;;;;;;48.90;22.52;;;;;;;0.05;81.65;101073.27;1707501;83;21166;-80
2020/12/19 09:44:13;;;;;;;46.53;21.42;;;;;;;0.05;81.37;101075.97;1738204;81;21611;-77
2020/12/19 09:46:42;;;;;;;48.40;22.93;;;;;;;0.00;81.57;101071.56;1735300;82;21120;-78
2020/12/19 09:49:10;;;;;;;49.98;23.35;;;;;;;0.00;81.72;101071.56;1715919;82;21233;-80
2020/12/19 09:51:37;;;;;;;49.03;23.75;;;;;;;0.03;81.85;101069.88;1726149;82;21162;-85
2020/12/19 09:54:05;;;;;;;48.20;23.42;;;;;;;0.05;81.94;101070.58;1735624;81;21136;-76
2020/12/19 09:56:40;;;;;;;45.55;22.70;;;;;;;0.07;81.92;101065.88;1720815;83;21137;-78
2020/12/19 09:59:08;;;;;;;50.47;24.00;;;;;;;0.08;81.89;101066.72;1696863;81;21268;-84
2020/12/19 10:01:36;;;;;;;51.90;23.90;;;;;;;0.07;81.67;101063.19;1731407;81;21757;-79
2020/12/19 10:04:03;;;;;;;48.90;24.02;;;;;;;0.02;81.78;101068.20;1717547;82;21209;-83
2020/12/19 10:06:32;;;;;;;56.25;25.52;;;;;;;0.04;82.17;101063.50;1707262;84;21182;-79
2020/12/19 10:09:00;;;;;;;53.77;25.30;;;;;;;0.06;82.17;101065.52;1706932;82;21213;-83
2020/12/19 10:11:28;;;;;;;55.70;26.25;;;;;;;0.07;82.17;101062.33;1725249;83;21160;-82
2020/12/19 10:13:56;;;;;;;57.38;27.25;;;;;;;0.06;82.12;101052.56;1724452;81;21275;-80
2020/12/19 10:16:24;;;;;;;54.35;25.45;;;;;;;0.05;82.40;101049.05;1725172;82;21142;-81
2020/12/19 10:18:52;;;;;;;54.70;25.97;;;;;;;0.07;82.40;101048.88;1725009;82;21204;-80
2020/12/19 10:21:20;;;;;;;50.90;23.62;;;;;;;0.09;82.32;101045.52;1725216;81;21680;-81
2020/12/19 10:23:48;;;;;;;54.65;25.43;;;;;;;0.10;82.15;101041.33;1694931;85;21184;-77
2020/12/19 10:26:16;;;;;;;54.65;23.35;;;;;;;0.11;82.21;101044.84;1729841;81;21149;-81
2020/12/19 10:28:46;;;;;;;49.45;23.18;;;;;;;0.06;81.45;101041.80;1732082;82;21100;-82
2020/12/19 10:31:14;;;;;;;53.10;24.50;;;;;;;-0.03;81.67;101048.48;1714080;81;21190;-78
2020/12/19 10:33:42;;;;;;;49.93;23.90;;;;;;;-0.05;81.83;101049.15;1721158;82;21219;-76
2020/12/19 10:36:14;;;;;;;53.15;23.30;;;;;;;-0.03;81.97;101049.00;1707486;82;21139;-76
2020/12/19 10:38:42;;;;;;;53.67;23.93;;;;;;;-0.02;81.67;101046.14;1701727;82;21176;-79
2020/12/19 10:41:12;;;;;;;50.88;23.42;;;;;;;0.00;81.84;101054.08;1724714;81;21148;-75
2020/12/19 10:43:40;;;;;;;55.73;24.03;;;;;;;0.02;81.86;101052.06;1723152;83;21136;-77
2020/12/19 10:46:09;;;;;;;;;;;;;;;0.03;81.48;101048.34;1727534;81;21138;-77
2020/12/19 10:48:37;;;;;;;60.07;25.87;;;;;;;0.01;81.64;101047.67;1725747;83;20215;-79
2020/12/19 10:51:05;;;;;;;55.78;27.20;;;;;;;0.03;81.91;101042.14;1723855;83;21236;-80
2020/12/19 10:53:34;;;;;;;73.73;33.00;;;;;;;0.06;81.92;101041.80;1712418;82;21193;-78
2020/12/19 10:56:02;;;;;;;60.78;29.85;;;;;;;0.05;81.84;101032.91;1709303;82;21144;-77
2020/12/19 10:58:30;;;;;;;52.90;25.43;;;;;;;0.06;81.77;101031.88;1722030;82;21204;-77
2020/12/19 11:00:57;;;;;;;52.50;25.20;;;;;;;0.10;81.88;101029.72;1673803;82;21604;-79
2020/12/19 11:03:26;;;;;;;48.33;22.90;;;;;;;0.10;81.60;101030.57;1714402;82;21573;-78
2020/12/19 11:05:53;;;;;;;45.35;22.37;;;;;;;0.09;81.47;101028.87;1711899;82;21191;-77
2020/12/19 11:08:23;;;;;;;47.80;23.42;;;;;;;0.09;81.58;101028.02;1709441;82;21248;-81
2020/12/19 11:10:51;;;;;;;51.07;25.40;;;;;;;0.10;81.79;101025.69;1714155;82;21164;-78
2020/12/19 11:13:19;;;;;;;51.35;24.02;;;;;;;0.13;81.71;101020.80;1710878;82;21173;-74
2020/12/19 11:15:47;;;;;;;45.38;24.15;;;;;;;0.05;80.81;101018.09;1709392;82;21349;-76
2020/12/19 11:18:14;;;;;;;53.70;25.65;;;;;;;-0.02;81.40;101015.69;1717955;82;21148;-75
2020/12/19 11:20:42;;;;;;;52.90;26.23;;;;;;;0.02;81.55;101017.07;1714363;82;21178;-77
2020/12/19 11:23:10;;;;;;;49.60;25.72;;;;;;;0.07;81.56;101013.89;1722934;81;21196;-75
2020/12/19 11:25:38;;;;;;;61.88;26.82;;;;;;;0.10;81.50;101017.11;1726446;82;21726;-74
2020/12/19 11:28:06;;;;;;;54.63;26.60;;;;;;;0.10;81.34;101014.42;1728297;81;21204;-75